Time;durP1;ratioP1;P1;durP2;ratioP2;P2;SDS_P1;SDS_P2;PMS_P1;PMS_P2;Temp;Humidity;BMP_temperature;BMP_pressure;BME280_temperature;BME280_humidity;BME280_pressure;Samples;Min_cycle;Max_cycle;Signal;HPM_P1;HPM_P2
2021/11/09 00:01:51;;;;;;;19.08;4.88;;;;;;;5.29;100.00;102583.94;4957438;28;20031;-66
2021/11/09 00:04:17;;;;;;;25.05;6.20;;;;;;;5.25;100.00;102586.50;4957431;28;20106;-66
2021/11/09 00:06:54;;;;;;;20.45;5.88;;;;;;;5.24;100.00;102583.88;4956083;29;20127;-66
2021/11/09 00:09:20;;;;;;;26.50;6.38;;;;;;;5.23;100.00;102588.28;4956569;29;20054;-66
2021/11/09 00:11:45;;;;;;;19.90;5.57;;;;;;;5.21;100.00;102582.13;4956980;28;20467;-66
2021/11/09 00:14:10;;;;;;;25.80;5.25;;;;;;;5.20;100.00;102587.38;4957433;28;20364;-66
2021/11/09 00:16:37;;;;;;;18.63;5.30;;;;;;;5.18;100.00;102589.09;4956231;29;20027;-66
2021/11/09 00:19:03;;;;;;;21.63;5.00;;;;;;;5.17;100.00;102575.09;4956255;29;20046;-66
2021/11/09 00:21:29;;;;;;;22.70;5.32;;;;;;;5.16;100.00;102577.72;4972136;28;20037;-67
2021/11/09 00:23:55;;;;;;;20.85;5.07;;;;;;;5.14;100.00;102577.72;4972788;28;20029;-67
2021/11/09 00:26:21;;;;;;;17.45;5.10;;;;;;;5.13;100.00;102585.56;4974702;28;20031;-66
2021/11/09 00:28:47;;;;;;;26.48;5.28;;;;;;;5.11;100.00;102588.19;4975299;28;20054;-66
2021/11/09 00:31:13;;;;;;;17.23;4.85;;;;;;;5.12;100.00;102579.44;4975176;28;20030;-66
2021/11/09 00:33:39;;;;;;;19.20;5.70;;;;;;;5.14;100.00;102576.81;4973677;28;20027;-66
2021/11/09 00:36:06;;;;;;;19.42;5.50;;;;;;;5.13;100.00;102583.84;4973708;28;20117;-66
2021/11/09 00:38:32;;;;;;;15.32;5.65;;;;;;;5.05;100.00;102578.53;4974753;28;20030;-66
2021/11/09 00:40:58;;;;;;;26.15;5.72;;;;;;;4.99;100.00;102575.88;4975091;28;20037;-66
2021/11/09 00:43:24;;;;;;;19.35;5.10;;;;;;;4.93;100.00;102573.19;4974969;28;20435;-66
2021/11/09 00:45:49;;;;;;;15.52;4.93;;;;;;;4.86;100.00;102572.28;4973197;28;20077;-66
2021/11/09 00:48:15;;;;;;;18.02;4.88;;;;;;;4.79;100.00;102577.50;4974468;28;20498;-66
2021/11/09 00:50:46;;;;;;;18.55;5.20;;;;;;;4.78;100.00;102573.97;4975148;28;20395;-67
2021/11/09 00:53:14;;;;;;;20.13;5.50;;;;;;;4.81;100.00;102567.88;4974547;28;20077;-66
2021/11/09 00:55:41;;;;;;;23.13;6.80;;;;;;;4.84;100.00;102573.16;4973234;28;20031;-66
2021/11/09 00:58:07;;;;;;;23.05;5.90;;;;;;;4.85;100.00;102569.66;4974245;28;20027;-66
2021/11/09 01:00:36;;;;;;;20.52;6.30;;;;;;;4.87;100.00;102573.16;4960913;28;20031;-66
2021/11/09 01:03:04;;;;;;;24.73;6.35;;;;;;;4.88;100.00;102575.78;4955279;28;20492;-65
2021/11/09 01:05:31;;;;;;;19.83;5.85;;;;;;;4.90;100.00;102576.69;4956276;28;20066;-67
2021/11/09 01:07:58;;;;;;;24.85;7.00;;;;;;;4.88;100.00;102575.78;4955826;28;20038;-66
2021/11/09 01:10:32;;;;;;;19.50;6.60;;;;;;;4.85;100.00;102577.53;4955347;29;20484;-66
2021/11/09 01:12:58;;;;;;;28.77;7.30;;;;;;;4.84;100.00;102570.53;4955157;29;20034;-66
2021/11/09 01:15:24;;;;;;;23.60;6.70;;;;;;;4.84;100.00;102581.88;4955081;29;20028;-66
2021/11/09 01:17:51;;;;;;;21.08;7.10;;;;;;;4.83;100.00;102576.63;4957089;28;20111;-67
2021/11/09 01:20:19;;;;;;;16.83;6.07;;;;;;;4.76;100.00;102566.09;4955324;29;20031;-66
2021/11/09 01:22:46;;;;;;;23.13;6.20;;;;;;;4.75;100.00;102568.72;4954680;29;20440;-66
2021/11/09 01:25:12;;;;;;;20.10;7.03;;;;;;;4.72;100.00;102569.56;4955101;29;20027;-66
2021/11/09 01:27:37;;;;;;;27.10;7.78;;;;;;;4.71;100.00;102565.19;4956433;28;20050;-66
2021/11/09 01:30:08;;;;;;;24.17;7.10;;;;;;;4.70;100.00;102575.66;4973144;28;20038;-66
2021/11/09 01:32:34;;;;;;;28.02;7.07;;;;;;;4.69;100.00;102566.03;4974120;28;20062;-71
2021/11/09 01:34:59;;;;;;;33.22;8.18;;;;;;;4.70;100.00;102563.41;4974022;28;20078;-66
2021/11/09 01:37:25;;;;;;;25.90;8.38;;;;;;;4.73;100.00;102567.81;4973016;28;20031;-66
2021/11/09 01:39:50;;;;;;;35.38;8.40;;;;;;;4.73;100.00;102570.44;4971836;28;20035;-66
2021/11/09 01:42:16;;;;;;;23.17;7.18;;;;;;;4.73;100.00;102567.81;4974250;28;20034;-66
2021/11/09 01:44:42;;;;;;;24.20;7.78;;;;;;;4.72;100.00;102572.19;4974288;28;20023;-66
2021/11/09 01:47:07;;;;;;;27.38;7.80;;;;;;;4.72;100.00;102566.06;4974021;28;20031;-66
2021/11/09 01:49:33;;;;;;;30.60;8.52;;;;;;;4.73;100.00;102557.31;4970790;28;20033;-66
2021/11/09 01:52:00;;;;;;;22.33;8.00;;;;;;;4.76;100.00;102567.84;4973917;28;20067;-66
2021/11/09 01:54:26;;;;;;;22.85;7.88;;;;;;;4.76;100.00;102573.97;4974011;28;20067;-66
2021/11/09 01:56:51;;;;;;;24.70;8.23;;;;;;;4.73;100.00;102566.09;4973932;28;20026;-66
2021/11/09 01:59:16;;;;;;;29.88;9.38;;;;;;;4.71;100.00;102559.06;4972113;28;20031;-65
2021/11/09 02:01:42;;;;;;;34.05;9.45;;;;;;;4.70;100.00;102563.41;4962765;28;20031;-66
2021/11/09 02:04:09;;;;;;;26.80;9.75;;;;;;;4.71;100.00;102567.81;4954459;29;20032;-67
2021/11/09 02:06:35;;;;;;;29.38;10.10;;;;;;;4.70;100.00;102552.91;4954391;29;20440;-66
2021/11/09 02:09:08;;;;;;;30.15;10.07;;;;;;;4.74;100.00;102559.97;4955536;28;20027;-66
2021/11/09 02:11:34;;;;;;;30.88;9.57;;;;;;;4.72;100.00;102543.31;4955497;28;20039;-66
2021/11/09 02:14:00;;;;;;;32.80;10.60;;;;;;;4.72;100.00;102545.94;4958363;29;20399;-66
2021/11/09 02:16:27;;;;;;;29.67;9.05;;;;;;;4.74;100.00;102540.69;4958209;29;20046;-66
2021/11/09 02:18:52;;;;;;;28.75;9.63;;;;;;;4.74;100.00;102541.59;4958613;28;20379;-66
2021/11/09 02:21:19;;;;;;;34.70;11.27;;;;;;;4.74;100.00;102535.44;4959654;28;20105;-66
2021/11/09 02:23:45;;;;;;;28.33;9.88;;;;;;;4.74;100.00;102538.06;4958044;28;20495;-66
2021/11/09 02:26:14;;;;;;;32.47;11.20;;;;;;;4.76;100.00;102536.34;4959040;28;20110;-66
2021/11/09 02:28:40;;;;;;;33.95;10.65;;;;;;;4.77;100.00;102543.38;4958388;29;20023;-66
2021/11/09 02:31:06;;;;;;;33.78;10.75;;;;;;;4.74;100.00;102557.34;4959178;28;20031;-66
2021/11/09 02:33:32;;;;;;;31.88;10.40;;;;;;;4.76;100.00;102562.59;4959131;28;20035;-66
2021/11/09 02:35:57;;;;;;;27.33;10.77;;;;;;;4.75;100.00;102553.81;4958012;29;20031;-68
2021/11/09 02:38:22;;;;;;;30.05;11.00;;;;;;;4.76;100.00;102547.72;4957926;29;20028;-66
2021/11/09 02:40:48;;;;;;;31.08;11.02;;;;;;;4.78;100.00;102552.09;4958774;28;20387;-66
2021/11/09 02:43:15;;;;;;;33.28;11.88;;;;;;;4.76;100.00;102546.84;4958838;28;20031;-66
2021/11/09 02:48:25;;;;;;;30.38;10.48;;;;;;;4.77;100.00;102546.00;4958020;29;20119;-66
2021/11/09 02:50:56;;;;;;;39.42;13.85;;;;;;;4.75;100.00;102540.72;4957634;28;20484;-66
2021/11/09 03:01:44;;;;;;;33.97;14.27;;;;;;;4.75;100.00;102545.09;4916189;29;20128;-66
2021/11/09 03:04:18;;;;;;;33.47;15.20;;;;;;;4.76;100.00;102552.09;4899457;29;20123;-66
2021/11/09 03:06:50;;;;;;;35.35;15.82;;;;;;;4.74;100.00;102553.81;4904337;29;20043;-66
2021/11/09 03:09:24;;;;;;;39.63;14.88;;;;;;;4.71;100.00;102559.06;4912287;29;20048;-67
2021/11/09 03:11:58;;;;;;;37.30;14.55;;;;;;;4.66;100.00;102545.91;4897928;29;20028;-68
2021/11/09 03:14:25;;;;;;;37.35;16.30;;;;;;;4.64;100.00;102539.75;4900077;29;20036;-66
2021/11/09 03:16:51;;;;;;;42.25;15.65;;;;;;;4.61;100.00;102542.38;4898233;29;20037;-67
2021/11/09 03:46:39;;;;;;;36.08;12.20;;;;;;;4.43;100.00;102575.44;4974358;28;20407;-66
2021/11/09 03:49:08;;;;;;;28.00;11.65;;;;;;;4.43;100.00;102585.06;4976150;28;20029;-68
2021/11/09 03:51:34;;;;;;;33.85;12.13;;;;;;;4.45;100.00;102582.44;4976112;28;20118;-66
2021/11/09 03:54:03;;;;;;;29.65;11.98;;;;;;;4.48;100.00;102564.13;4976066;28;20522;-66
2021/11/09 03:56:37;;;;;;;38.17;12.38;;;;;;;4.49;100.00;102560.63;4973967;28;20034;-66
2021/11/09 03:59:07;;;;;;;41.97;13.57;;;;;;;4.51;100.00;102558.91;4975077;28;20035;-66
2021/11/09 04:01:43;;;;;;;48.00;14.57;;;;;;;4.53;100.00;102555.41;4975707;28;20029;-67
2021/11/09 04:04:31;;;;;;;38.95;14.25;;;;;;;4.58;100.00;102551.09;4976042;28;20077;-67
2021/11/09 04:07:06;;;;;;;45.05;15.43;;;;;;;4.62;100.00;102558.97;4973979;28;20049;-66
2021/11/09 04:10:18;;;;;;;43.28;15.45;;;;;;;4.67;100.00;102554.66;4973836;28;20510;-66
2021/11/09 04:12:45;;;;;;;43.67;16.58;;;;;;;4.73;100.00;102555.59;4967291;28;20027;-66
2021/11/09 04:20:51;;;;;;;46.38;17.02;;;;;;;4.88;100.00;102560.03;4915844;29;20096;-67
2021/11/09 05:10:29;;;;;;;40.28;13.18;;;;;;;5.18;100.00;102573.34;4974856;28;20187;-66
2021/11/09 05:12:55;;;;;;;37.10;13.55;;;;;;;5.23;100.00;102579.50;4972545;28;20058;-66
2021/11/09 05:15:20;;;;;;;39.03;13.38;;;;;;;5.33;100.00;102581.34;4974302;28;20054;-66
2021/11/09 05:17:45;;;;;;;38.63;12.40;;;;;;;5.44;100.00;102584.00;4972848;28;20031;-66
2021/11/09 05:20:11;;;;;;;40.22;13.10;;;;;;;5.50;100.00;102585.75;4974166;28;20475;-67
2021/11/09 05:22:36;;;;;;;36.35;14.38;;;;;;;5.60;100.00;102576.19;4972539;28;20019;-67
2021/11/09 05:25:02;;;;;;;40.00;12.35;;;;;;;5.71;100.00;102582.34;4974333;28;20114;-67
2021/11/09 05:27:28;;;;;;;31.98;12.95;;;;;;;5.77;100.00;102576.22;4974201;28;20038;-66
2021/11/09 05:29:55;;;;;;;34.30;12.48;;;;;;;5.89;100.00;102585.03;4972599;28;20035;-66
2021/11/09 05:32:21;;;;;;;34.25;11.32;;;;;;;5.99;100.00;102585.09;4973436;28;20502;-66
2021/11/09 05:34:46;;;;;;;28.15;10.95;;;;;;;6.05;100.00;102590.38;4973204;28;20030;-66
2021/11/09 05:37:14;;;;;;;31.77;12.18;;;;;;;6.15;100.00;102594.78;4974154;28;20445;-66
2021/11/09 05:39:54;;;;;;;36.83;11.68;;;;;;;6.23;100.00;102592.16;4972317;28;20118;-66
2021/11/09 05:42:20;;;;;;;36.22;11.77;;;;;;;6.33;100.00;102588.69;4973607;28;20038;-66
2021/11/09 05:44:45;;;;;;;36.03;12.10;;;;;;;6.42;99.83;102586.91;4971961;28;20027;-67
2021/11/09 05:47:12;;;;;;;39.40;12.25;;;;;;;6.50;100.00;102596.56;4973072;28;20034;-67
2021/11/09 05:49:38;;;;;;;38.53;12.52;;;;;;;6.56;99.51;102591.31;4972297;28;20031;-67
2021/11/09 05:52:04;;;;;;;38.28;12.75;;;;;;;6.62;99.24;102592.19;4973924;28;20035;-67
2021/11/09 05:54:30;;;;;;;39.63;12.82;;;;;;;6.63;98.44;102592.19;4972082;28;20030;-66
2021/11/09 05:56:55;;;;;;;40.38;13.27;;;;;;;6.66;98.06;102599.19;4973677;28;20234;-66
2021/11/09 05:59:21;;;;;;;42.20;15.52;;;;;;;6.70;98.21;102593.94;4973512;28;20031;-66
2021/11/09 06:01:47;;;;;;;40.45;14.35;;;;;;;6.72;97.62;102602.72;4971855;28;20066;-66
2021/11/09 06:04:13;;;;;;;44.10;13.93;;;;;;;6.78;97.16;102593.03;4973839;28;20344;-67
2021/11/09 06:06:38;;;;;;;39.25;13.20;;;;;;;6.81;97.15;102603.59;4972047;28;20043;-66
2021/11/09 06:09:04;;;;;;;42.60;13.80;;;;;;;6.82;97.04;102600.09;4968542;28;20458;-67
2021/11/09 06:11:29;;;;;;;42.33;13.93;;;;;;;6.83;97.35;102600.09;4959362;28;20026;-67
2021/11/09 06:13:54;;;;;;;40.58;13.68;;;;;;;6.87;96.52;102601.81;4973432;28;20027;-67
2021/11/09 06:16:20;;;;;;;44.30;12.93;;;;;;;6.88;96.06;102597.47;4972794;28;20074;-66
2021/11/09 06:18:45;;;;;;;46.17;14.30;;;;;;;6.86;96.15;102602.69;4973756;28;20125;-67
2021/11/09 06:21:11;;;;;;;36.15;11.63;;;;;;;6.93;95.97;102606.22;4973596;28;20038;-66
2021/11/09 06:23:36;;;;;;;38.47;12.75;;;;;;;6.93;95.88;102613.22;4971621;28;20078;-66
2021/11/09 06:26:03;;;;;;;39.78;12.23;;;;;;;6.94;95.45;102607.09;4973404;28;20077;-66
2021/11/09 06:28:29;;;;;;;38.67;11.95;;;;;;;6.94;95.68;102610.59;4973205;28;20027;-67
2021/11/09 06:30:55;;;;;;;42.00;12.45;;;;;;;6.97;95.44;102620.25;4973185;28;20052;-67
2021/11/09 06:33:21;;;;;;;43.10;13.32;;;;;;;6.94;95.44;102615.84;4971551;28;20027;-67
2021/11/09 06:35:47;;;;;;;38.67;12.65;;;;;;;6.98;95.62;102620.28;4973534;28;20027;-66
2021/11/09 06:38:12;;;;;;;37.20;12.20;;;;;;;6.93;95.28;102618.50;4971669;28;20030;-67
2021/11/09 06:40:38;;;;;;;35.35;12.60;;;;;;;6.98;95.38;102616.75;4973436;28;20030;-66
2021/11/09 06:43:03;;;;;;;35.78;12.38;;;;;;;6.98;95.29;102630.81;4971476;28;20077;-67
2021/11/09 06:45:29;;;;;;;37.97;12.50;;;;;;;6.96;95.45;102629.91;4972778;28;20049;-67
2021/11/09 06:47:55;;;;;;;43.22;13.25;;;;;;;6.98;95.71;102619.38;4972036;28;20081;-66
2021/11/09 06:50:22;;;;;;;41.45;13.38;;;;;;;7.03;95.61;102636.03;4973266;28;20031;-67
2021/11/09 06:52:47;;;;;;;39.33;13.07;;;;;;;7.02;95.50;102631.66;4973208;28;20386;-66
2021/11/09 06:55:12;;;;;;;42.10;12.82;;;;;;;7.04;95.67;102635.19;4971378;28;20023;-67
2021/11/09 06:57:38;;;;;;;43.70;13.32;;;;;;;7.05;95.60;102635.16;4970662;28;20030;-67
2021/11/09 07:00:07;;;;;;;47.08;14.43;;;;;;;7.10;95.72;102629.91;4976459;28;20023;-67
2021/11/09 07:02:35;;;;;;;46.25;14.80;;;;;;;7.13;95.53;102639.56;4976050;28;20039;-68
2021/11/09 07:05:00;;;;;;;43.88;14.73;;;;;;;7.12;95.84;102651.84;4975873;28;20027;-67
2021/11/09 07:07:26;;;;;;;45.28;14.82;;;;;;;7.13;95.74;102644.81;4976232;28;20519;-67
2021/11/09 07:09:51;;;;;;;39.17;14.40;;;;;;;7.16;95.94;102653.63;4963878;28;20032;-68
2021/11/09 07:12:17;;;;;;;45.33;15.32;;;;;;;7.20;95.92;102646.59;4956734;29;20547;-67
2021/11/09 07:14:42;;;;;;;47.80;14.60;;;;;;;7.19;96.18;102642.19;4957007;29;20039;-67
2021/11/09 07:17:09;;;;;;;48.15;15.20;;;;;;;7.24;95.89;102650.06;4972551;28;20066;-67
2021/11/09 07:19:36;;;;;;;46.55;15.57;;;;;;;7.24;96.11;102652.69;4971459;28;20070;-67
2021/11/09 07:22:02;;;;;;;40.67;14.80;;;;;;;7.24;96.18;102653.59;4968037;28;20031;-67
2021/11/09 07:24:30;;;;;;;39.20;13.50;;;;;;;7.28;96.44;102663.25;4971552;28;20069;-70
2021/11/09 07:26:56;;;;;;;37.60;14.48;;;;;;;7.26;96.75;102662.34;4974695;28;20031;-66
2021/11/09 07:29:21;;;;;;;41.08;14.82;;;;;;;7.33;96.58;102668.53;4970787;28;20024;-70
2021/11/09 07:31:47;;;;;;;41.65;14.07;;;;;;;7.35;96.75;102669.38;4968748;28;20125;-66
2021/11/09 07:34:12;;;;;;;43.45;14.88;;;;;;;7.34;97.01;102679.06;4976361;28;20356;-71
2021/11/09 07:36:37;;;;;;;45.53;14.32;;;;;;;7.38;96.98;102677.28;4959154;28;20173;-66
2021/11/09 07:39:06;;;;;;;43.17;14.60;;;;;;;7.41;96.73;102685.19;4975127;28;20039;-67
2021/11/09 07:41:32;;;;;;;43.35;14.60;;;;;;;7.42;96.81;102679.03;4976321;28;20023;-70
2021/11/09 07:43:58;;;;;;;44.58;15.20;;;;;;;7.49;96.95;102678.16;4975368;28;20081;-68
2021/11/09 07:46:24;;;;;;;37.22;14.13;;;;;;;7.53;96.84;102681.63;4963594;28;20031;-67
2021/11/09 07:48:49;;;;;;;38.90;13.73;;;;;;;7.54;96.85;102676.38;4958738;28;20106;-64
2021/11/09 07:51:15;;;;;;;44.60;15.20;;;;;;;7.58;96.80;102687.78;4974267;28;20477;-69
2021/11/09 07:53:41;;;;;;;46.97;13.77;;;;;;;7.59;96.60;102688.66;4973937;28;20027;-67
2021/11/09 07:56:16;;;;;;;43.20;14.82;;;;;;;7.58;96.74;102689.53;4975746;28;20118;-68
2021/11/09 08:01:17;;;;;;;44.47;14.97;;;;;;;7.58;96.65;102692.19;4974617;28;20042;-66
2021/11/09 08:07:02;;;;;;;39.78;13.95;;;;;;;7.61;97.02;102693.06;4975962;28;20046;-69
2021/11/09 08:09:10;;;;;;;38.20;14.10;;;;;;;7.68;96.98;102699.19;4951837;28;20052;-66
2021/11/09 08:11:38;;;;;;;35.33;13.75;;;;;;;7.77;96.90;102695.66;4971189;28;20028;-67
2021/11/09 08:14:04;;;;;;;44.50;13.70;;;;;;;7.81;96.57;102700.03;4971943;28;20042;-67
2021/11/09 08:16:29;;;;;;;35.25;12.88;;;;;;;7.91;95.99;102693.81;4973215;28;20031;-66
2021/11/09 08:18:54;;;;;;;44.85;12.98;;;;;;;7.91;95.43;102693.81;4956099;29;20078;-67
2021/11/09 08:21:20;;;;;;;36.53;12.70;;;;;;;7.92;95.61;102692.94;4957409;28;20031;-66
2021/11/09 08:23:49;;;;;;;35.38;12.38;;;;;;;8.01;95.24;102692.03;4955940;29;20034;-66
2021/11/09 08:26:18;;;;;;;32.25;11.35;;;;;;;8.05;95.08;102696.41;4955872;29;20023;-67
2021/11/09 08:28:44;;;;;;;38.90;13.77;;;;;;;8.11;95.17;102698.16;4958521;28;20023;-66
2021/11/09 08:31:13;;;;;;;33.50;13.55;;;;;;;8.13;94.35;102693.75;4975373;28;20023;-65
2021/11/09 08:33:38;;;;;;;38.22;12.80;;;;;;;8.24;94.66;102694.56;4974821;28;20430;-68
2021/11/09 08:36:08;;;;;;;39.42;12.98;;;;;;;8.17;94.38;102696.38;4975301;28;20022;-67
2021/11/09 08:38:33;;;;;;;35.17;12.77;;;;;;;8.16;94.66;102699.03;4972006;28;20043;-68
2021/11/09 08:41:00;;;;;;;36.83;13.50;;;;;;;8.20;94.90;102695.47;4960725;28;20039;-67
2021/11/09 08:43:30;;;;;;;35.38;13.35;;;;;;;8.24;94.47;102699.84;4966511;28;20034;-68
2021/11/09 08:45:58;;;;;;;38.08;13.30;;;;;;;8.35;93.44;102691.84;4967777;28;20085;-68
2021/11/09 08:48:29;;;;;;;40.75;12.57;;;;;;;8.41;92.71;102690.97;4965454;28;20062;-68
2021/11/09 08:50:54;;;;;;;43.88;13.13;;;;;;;8.44;92.89;102683.00;4962735;28;20200;-67
2021/11/09 08:53:29;;;;;;;34.28;12.40;;;;;;;8.43;92.77;102690.06;4963586;28;20487;-65
2021/11/09 08:56:16;;;;;;;38.53;12.45;;;;;;;8.45;92.60;102690.94;4966570;28;20544;-67
2021/11/09 09:06:42;;;;;;;29.15;11.73;;;;;;;8.59;93.00;102688.22;4959106;28;20038;-67
2021/11/09 09:09:08;;;;;;;35.20;12.02;;;;;;;8.73;92.60;102693.41;4964526;28;20038;-68
2021/11/09 09:11:34;;;;;;;34.13;12.15;;;;;;;8.78;92.50;102688.97;4973824;28;20035;-66
2021/11/09 09:14:01;;;;;;;31.23;11.38;;;;;;;8.86;91.98;102691.53;4974299;28;20518;-67
2021/11/09 09:16:28;;;;;;;39.05;12.70;;;;;;;8.96;91.59;102698.50;4968617;28;20039;-67
2021/11/09 09:18:57;;;;;;;41.80;15.38;;;;;;;9.12;91.99;102708.97;4955184;29;20034;-67
2021/11/09 09:21:28;;;;;;;35.65;12.45;;;;;;;9.17;91.23;102697.47;4954938;28;20035;-67
2021/11/09 09:23:58;;;;;;;41.47;12.98;;;;;;;9.24;90.65;102705.34;4955082;28;20023;-65
2021/11/09 09:32:30;;;;;;;38.75;12.10;;;;;;;9.37;90.70;102706.97;4914570;29;20086;-67
2021/11/09 09:54:04;;;;;;;28.45;9.93;;;;;;;9.61;88.38;102707.63;4914135;29;20571;-66
2021/11/09 09:56:39;;;;;;;29.67;10.30;;;;;;;9.68;88.61;102709.31;4911963;29;20062;-67
2021/11/09 09:59:06;;;;;;;31.00;10.95;;;;;;;9.72;87.71;102711.03;4906391;29;20100;-65
2021/11/09 10:01:32;;;;;;;29.75;10.57;;;;;;;9.73;87.86;102703.94;4914061;29;20123;-66
2021/11/09 10:03:57;;;;;;;35.05;10.60;;;;;;;9.93;87.25;102704.59;4898031;29;20104;-66
2021/11/09 10:06:41;;;;;;;29.95;10.73;;;;;;;10.00;86.10;102702.75;4941198;29;20377;-66
2021/11/09 10:09:06;;;;;;;32.35;10.38;;;;;;;10.08;86.07;102705.31;4966824;28;20047;-67
2021/11/09 10:11:38;;;;;;;29.42;10.02;;;;;;;10.16;86.36;102714.00;4973754;28;20034;-64
2021/11/09 10:14:06;;;;;;;29.52;10.07;;;;;;;10.03;86.70;102708.00;4972697;28;20041;-66
2021/11/09 10:16:34;;;;;;;29.23;10.18;;;;;;;10.00;86.51;102714.22;4970754;28;20085;-67
2021/11/09 10:19:00;;;;;;;31.13;10.50;;;;;;;9.86;87.82;102715.25;4970466;28;20082;-66
2021/11/09 10:21:35;;;;;;;32.20;9.93;;;;;;;9.80;88.16;102695.06;4973804;28;20027;-67
2021/11/09 10:24:01;;;;;;;29.15;10.73;;;;;;;9.85;88.29;102698.53;4973249;28;20019;-67
2021/11/09 10:26:27;;;;;;;35.45;10.77;;;;;;;9.87;87.84;102693.22;4973767;28;20034;-67
2021/11/09 10:28:52;;;;;;;36.17;11.13;;;;;;;9.94;88.49;102700.19;4973033;28;20030;-68
2021/11/09 10:31:18;;;;;;;34.10;10.25;;;;;;;10.11;88.04;102710.56;4954412;29;20035;-67
2021/11/09 10:33:51;;;;;;;32.65;10.98;;;;;;;10.21;87.20;102698.06;4955642;28;20563;-70
2021/11/09 10:36:25;;;;;;;34.67;11.23;;;;;;;10.30;87.28;102713.84;4957793;29;20027;-70
2021/11/09 10:38:51;;;;;;;29.05;10.20;;;;;;;10.23;86.96;102702.47;4958350;29;20035;-67
2021/11/09 10:41:17;;;;;;;32.97;10.77;;;;;;;10.21;87.29;102709.53;4941931;29;20035;-68
2021/11/09 10:43:44;;;;;;;34.00;11.88;;;;;;;10.15;88.72;102706.97;4958165;29;20031;-67
2021/11/09 10:46:28;;;;;;;33.83;10.13;;;;;;;10.19;88.05;102705.16;4958074;29;20051;-68
2021/11/09 10:48:54;;;;;;;35.40;9.85;;;;;;;10.06;88.92;102707.94;4957438;29;20554;-67
2021/11/09 10:51:20;;;;;;;27.17;9.85;;;;;;;10.02;89.71;102700.09;4958777;28;20110;-66
2021/11/09 10:53:50;;;;;;;35.35;11.18;;;;;;;9.98;90.67;102696.59;4964780;28;20102;-68
2021/11/09 10:59:23;;;;;;;31.90;10.50;;;;;;;9.92;90.72;102707.25;4971990;28;20046;-68
2021/11/09 11:04:35;;;;;;;32.72;10.55;;;;;;;9.90;91.51;102709.03;4963837;28;20042;-67
2021/11/09 11:07:01;;;;;;;34.65;12.82;;;;;;;9.84;91.33;102702.91;4962706;28;20130;-67
2021/11/09 11:09:28;;;;;;;31.67;11.35;;;;;;;9.74;91.68;102711.84;4957236;28;20030;-67
2021/11/09 11:11:56;;;;;;;37.70;13.10;;;;;;;9.72;92.09;102704.84;4958604;28;20027;-66
2021/11/09 11:14:24;;;;;;;34.10;11.60;;;;;;;9.66;92.58;102711.94;4970435;28;20115;-67
2021/11/09 11:16:55;;;;;;;37.65;13.23;;;;;;;9.62;93.36;102712.88;4956719;28;20042;-70
2021/11/09 11:19:45;;;;;;;35.90;12.98;;;;;;;9.63;93.88;102706.69;4957250;29;20035;-72
2021/11/09 11:22:14;;;;;;;33.08;11.88;;;;;;;9.56;93.39;102707.66;4973629;28;20031;-71
2021/11/09 11:24:41;;;;;;;38.20;12.95;;;;;;;9.48;94.43;102704.22;4976081;28;20054;-73
2021/11/09 11:27:08;;;;;;;34.58;12.27;;;;;;;9.50;94.54;102697.13;4976096;28;20037;-72
2021/11/09 11:29:36;;;;;;;26.83;11.77;;;;;;;9.57;94.50;102708.53;4976104;28;20023;-72
2021/11/09 11:32:04;;;;;;;34.72;11.90;;;;;;;9.55;94.98;102705.03;4973222;28;20026;-72
2021/11/09 11:34:29;;;;;;;40.40;12.98;;;;;;;9.57;95.12;102698.81;4974942;28;20077;-72
2021/11/09 11:36:55;;;;;;;34.70;11.82;;;;;;;9.60;94.91;102700.56;4976202;28;20431;-71
2021/11/09 11:39:24;;;;;;;28.05;11.80;;;;;;;9.58;94.25;102700.59;4974837;28;20163;-70
2021/11/09 11:41:54;;;;;;;33.25;12.30;;;;;;;9.60;94.43;102697.91;4976152;28;20042;-71
2021/11/09 11:44:28;;;;;;;32.50;12.30;;;;;;;9.60;94.91;102700.56;4974553;28;20018;-70
2021/11/09 11:47:13;;;;;;;37.88;12.55;;;;;;;9.58;95.21;102697.03;4975616;28;20026;-71
2021/11/09 11:49:41;;;;;;;34.90;13.02;;;;;;;9.50;95.30;102699.78;4976294;28;20027;-72
2021/11/09 11:52:14;;;;;;;32.30;12.45;;;;;;;9.52;95.51;102690.94;4973921;28;20069;-70
2021/11/09 11:54:42;;;;;;;41.38;13.77;;;;;;;9.50;96.30;102700.66;4974485;28;20101;-72
2021/11/09 11:57:09;;;;;;;34.58;13.45;;;;;;;9.48;96.11;102688.34;4976016;28;20062;-72
2021/11/09 11:59:35;;;;;;;38.45;15.25;;;;;;;9.47;96.54;102686.59;4975844;28;20031;-72
2021/11/09 12:02:06;;;;;;;34.60;14.20;;;;;;;9.48;96.42;102689.22;4975541;28;20113;-71
2021/11/09 12:04:40;;;;;;;36.07;13.40;;;;;;;9.49;96.36;102677.75;4970827;28;20023;-69
2021/11/09 12:07:48;;;;;;;35.83;13.88;;;;;;;9.49;96.60;102675.09;4968638;28;20493;-69
2021/11/09 12:10:14;;;;;;;39.83;12.98;;;;;;;9.51;96.70;102675.97;4969781;28;20072;-67
2021/11/09 12:12:39;;;;;;;37.58;14.13;;;;;;;9.54;96.81;102679.47;4964268;28;20031;-69
2021/11/09 12:15:07;;;;;;;38.55;13.10;;;;;;;9.51;96.93;102675.97;4975310;28;20027;-73
2021/11/09 12:17:44;;;;;;;29.20;13.27;;;;;;;9.60;97.14;102669.69;4971372;28;20031;-72
2021/11/09 12:20:15;;;;;;;36.22;13.73;;;;;;;9.58;97.13;102658.28;4974267;28;20023;-65
2021/11/09 12:22:43;;;;;;;36.03;14.00;;;;;;;9.62;97.20;102669.69;4972189;28;20034;-73
2021/11/09 12:25:21;;;;;;;29.55;12.90;;;;;;;9.55;97.23;102663.56;4973213;28;20040;-71
2021/11/09 12:27:49;;;;;;;36.42;14.18;;;;;;;9.51;98.04;102652.19;4975464;28;20097;-73
2021/11/09 12:30:40;;;;;;;31.90;14.23;;;;;;;9.54;99.08;102659.19;4974185;28;20498;-72
2021/11/09 12:33:24;;;;;;;32.33;14.32;;;;;;;9.51;99.48;102657.47;4966538;28;20042;-70
2021/11/09 12:35:57;;;;;;;37.10;14.63;;;;;;;9.56;99.50;102656.53;4966215;28;20029;-71
2021/11/09 12:38:45;;;;;;;36.30;14.25;;;;;;;9.53;99.90;102649.50;4968508;28;20468;-73
2021/11/09 12:41:29;;;;;;;36.58;15.02;;;;;;;9.53;100.00;102657.44;4974804;28;20109;-72
2021/11/09 12:43:55;;;;;;;30.52;13.85;;;;;;;9.50;100.00;102653.06;4962614;28;20029;-71
2021/11/09 12:49:03;;;;;;;35.35;14.52;;;;;;;9.37;100.00;102662.00;4959655;28;20118;-73
2021/11/09 12:51:32;;;;;;;34.67;15.07;;;;;;;9.38;100.00;102641.75;4974650;28;20031;-72
2021/11/09 12:54:06;;;;;;;35.17;15.38;;;;;;;9.35;100.00;102634.72;4970279;28;20119;-69
2021/11/09 12:56:37;;;;;;;39.35;15.38;;;;;;;9.40;100.00;102646.13;4966365;28;20054;-72
2021/11/09 12:59:40;;;;;;;38.67;14.63;;;;;;;9.41;100.00;102639.94;4973362;28;20070;-71
2021/11/09 13:09:53;;;;;;;53.40;17.52;;;;;;;9.47;100.00;102631.94;4895508;29;20075;-73
2021/11/09 13:12:21;;;;;;;47.50;16.60;;;;;;;9.48;100.00;102646.03;4895562;29;20076;-68
2021/11/09 13:14:58;;;;;;;55.75;17.80;;;;;;;9.51;100.00;102635.41;4896296;29;20458;-73
2021/11/09 13:17:31;;;;;;;52.03;17.40;;;;;;;9.55;100.00;102641.56;4895405;29;20036;-70
2021/11/09 13:20:00;;;;;;;52.67;16.77;;;;;;;9.58;100.00;102637.09;4894788;29;20123;-70
2021/11/09 13:22:29;;;;;;;52.10;16.88;;;;;;;9.60;100.00;102632.66;4895078;29;20047;-72
2021/11/09 13:24:57;;;;;;;50.28;16.80;;;;;;;9.64;99.77;102636.16;4895284;29;20032;-69
2021/11/09 13:27:38;;;;;;;44.22;16.08;;;;;;;9.70;99.56;102630.78;4895542;29;20060;-73
2021/11/09 13:30:14;;;;;;;49.47;15.43;;;;;;;9.71;99.04;102632.53;4896018;29;20119;-72
2021/11/09 13:32:42;;;;;;;47.60;15.10;;;;;;;9.77;98.29;102635.13;4894909;29;20036;-71
2021/11/09 13:35:26;;;;;;;49.78;16.00;;;;;;;9.84;98.43;102649.13;4893303;29;20036;-72
2021/11/09 13:38:08;;;;;;;41.33;14.23;;;;;;;9.89;98.10;102647.31;4894544;29;20493;-72
2021/11/09 13:40:34;;;;;;;;;;;;;;;9.96;96.80;102645.44;4893238;29;20029;-72
2021/11/09 13:43:06;;;;;;;46.72;14.68;;;;;;;9.91;96.32;102644.63;4893571;29;20375;-73
2021/11/09 13:45:32;;;;;;;50.25;14.48;;;;;;;9.93;96.83;102637.56;4960217;28;20034;-72
2021/11/09 13:47:58;;;;;;;44.15;13.35;;;;;;;9.94;96.71;102634.88;4966905;28;20031;-68